Missouri City, Missouri
Current Conditions -  °F | °C
As of 12:35 PM on Monday 24 Nov 2014 (Local Time) from KGPH Reporting Station
Overcast Overcast  
Wind Chill: 25°   Ceiling: 3400
Heat Index: 36°   Visibility: 10mi
Dew Point: 25°   Wind: 17mph
Humidity: 65%   Direction: 300°WNW
Pressure: 29.77"   Gusts: 25mph
Location:  39.24°N, 94.29°W
Report Text: KGPH 241835Z AUTO 30015G22KT 10SM BKN034 OVC040 02/M04 A2977 RMK AO2
Loading
Personal Weather Stations






























Interactive Weather Map New forecast layout! Learn more

10-Day Weather Forecast

Advertisements
Track Severe Weather on mobile